Time;durP1;ratioP1;P1;durP2;ratioP2;P2;SDS_P1;SDS_P2;PMS_P1;PMS_P2;Temp;Humidity;BMP_temperature;BMP_pressure;BME280_temperature;BME280_humidity;BME280_pressure;Samples;Min_cycle;Max_cycle;Signal;HPM_P1;HPM_P2
2022/10/28 00:00:01;;;;;;;126.82;46.40;;;;;;;;;;6171708;28;20076;-75
2022/10/28 00:03:01;;;;;;;108.13;43.03;;;;;;;;;;6175317;28;20033;-75
2022/10/28 00:06:02;;;;;;;124.47;44.73;;;;;;;;;;6175365;28;20055;-75
2022/10/28 00:09:02;;;;;;;108.80;41.43;;;;;;;;;;6157844;28;20073;-75
2022/10/28 00:12:03;;;;;;;143.57;43.30;;;;;;;;;;6176537;28;20023;-75
2022/10/28 00:15:03;;;;;;;173.55;50.35;;;;;;;;;;6144676;28;20053;-75
2022/10/28 00:18:03;;;;;;;166.45;46.50;;;;;;;;;;6175071;28;20018;-75
2022/10/28 00:21:06;;;;;;;168.02;50.25;;;;;;;;;;6153931;28;20019;-75
2022/10/28 00:24:07;;;;;;;153.38;46.03;;;;;;;;;;6175793;28;20018;-75
2022/10/28 00:27:07;;;;;;;101.25;37.88;;;;;;;;;;6174954;28;20415;-75
2022/10/28 00:30:07;;;;;;;192.27;49.15;;;;;;;;;;6174250;28;20022;-75
2022/10/28 00:33:07;;;;;;;165.17;48.37;;;;;;;;;;6174262;28;20019;-75
2022/10/28 00:36:09;;;;;;;162.40;49.25;;;;;;;;;;6157506;28;20518;-75
2022/10/28 00:39:11;;;;;;;207.38;50.30;;;;;;;;;;6185215;28;20036;-75
2022/10/28 00:42:12;;;;;;;159.43;48.92;;;;;;;;;;6171051;28;20027;-75
2022/10/28 00:45:12;;;;;;;200.02;54.20;;;;;;;;;;6156289;28;20113;-75
2022/10/28 00:48:12;;;;;;;214.67;54.63;;;;;;;;;;6174597;28;20069;-74
2022/10/28 00:51:13;;;;;;;219.07;52.75;;;;;;;;;;6172839;28;20603;-74
2022/10/28 00:54:15;;;;;;;218.50;53.87;;;;;;;;;;6161347;28;20463;-74
2022/10/28 00:57:17;;;;;;;150.13;49.88;;;;;;;;;;6173296;28;20088;-74
2022/10/28 01:00:17;;;;;;;;;;;;;;;;;;6183724;28;20396;-75
2022/10/28 01:03:17;;;;;;;184.80;48.78;;;;;;;;;;6174127;28;20271;-75
2022/10/28 01:06:17;;;;;;;210.13;48.42;;;;;;;;;;6170244;28;20411;-75
2022/10/28 01:09:18;;;;;;;248.23;53.97;;;;;;;;;;6163664;28;20349;-75
2022/10/28 01:12:18;;;;;;;141.75;47.17;;;;;;;;;;6171138;28;20062;-75
2022/10/28 01:15:26;;;;;;;197.15;48.15;;;;;;;;;;6180296;28;20041;-75
2022/10/28 01:18:32;;;;;;;139.77;44.90;;;;;;;;;;6166238;28;20019;-75
2022/10/28 01:21:42;;;;;;;149.10;45.28;;;;;;;;;;6172208;28;20145;-75
2022/10/28 01:24:42;;;;;;;185.07;43.78;;;;;;;;;;6159243;28;20028;-73
2022/10/28 01:27:42;;;;;;;141.20;43.25;;;;;;;;;;6188518;28;20027;-73
2022/10/28 01:31:01;;;;;;;208.57;44.28;;;;;;;;;;6174028;28;20471;-73
2022/10/28 01:34:16;;;;;;;254.98;47.15;;;;;;;;;;6173165;28;20026;-73
2022/10/28 01:37:31;;;;;;;224.27;45.22;;;;;;;;;;6172588;28;20042;-73
2022/10/28 01:40:34;;;;;;;184.02;42.85;;;;;;;;;;6173304;28;20030;-73
2022/10/28 01:43:37;;;;;;;184.88;45.80;;;;;;;;;;6159172;28;20023;-73
2022/10/28 01:46:37;;;;;;;264.05;53.05;;;;;;;;;;6172669;28;20136;-73
2022/10/28 01:49:47;;;;;;;190.15;49.85;;;;;;;;;;6169164;28;20015;-73
2022/10/28 01:52:48;;;;;;;236.00;48.45;;;;;;;;;;6170397;28;20750;-73
2022/10/28 01:55:50;;;;;;;190.18;43.47;;;;;;;;;;6171595;28;20054;-74
2022/10/28 01:58:52;;;;;;;227.55;47.50;;;;;;;;;;6156059;28;20037;-75
2022/10/28 02:01:52;;;;;;;186.65;48.42;;;;;;;;;;6172716;28;20041;-75
2022/10/28 02:05:02;;;;;;;258.10;53.00;;;;;;;;;;6188009;28;20404;-75
2022/10/28 02:08:05;;;;;;;200.90;48.67;;;;;;;;;;6173134;28;20050;-75
2022/10/28 02:11:21;;;;;;;201.75;45.08;;;;;;;;;;6173556;28;20097;-74
2022/10/28 02:14:24;;;;;;;158.40;42.35;;;;;;;;;;6172334;28;20047;-74
2022/10/28 02:17:42;;;;;;;141.10;40.20;;;;;;;;;;6172831;28;20023;-74
2022/10/28 02:20:52;;;;;;;237.23;47.90;;;;;;;;;;6172826;28;20023;-75
2022/10/28 02:23:58;;;;;;;154.48;44.30;;;;;;;;;;6154804;28;20081;-75
2022/10/28 02:27:08;;;;;;;140.93;38.33;;;;;;;;;;6149349;28;20082;-73
2022/10/28 02:30:15;;;;;;;195.80;45.42;;;;;;;;;;6155562;28;20030;-74
2022/10/28 02:33:21;;;;;;;191.13;44.25;;;;;;;;;;6161658;28;20030;-73
2022/10/28 02:36:23;;;;;;;138.13;39.83;;;;;;;;;;6164842;28;20105;-73
2022/10/28 02:39:26;;;;;;;233.70;45.03;;;;;;;;;;6159982;28;20027;-74
2022/10/28 02:42:29;;;;;;;158.95;42.70;;;;;;;;;;6179171;28;20466;-73
2022/10/28 02:45:38;;;;;;;130.05;41.95;;;;;;;;;;6174191;28;20105;-73
2022/10/28 02:48:44;;;;;;;165.32;39.10;;;;;;;;;;6158930;28;20023;-73
2022/10/28 02:51:52;;;;;;;182.40;45.38;;;;;;;;;;6164811;28;20023;-74
2022/10/28 02:54:54;;;;;;;211.68;40.45;;;;;;;;;;6188795;28;20022;-75
2022/10/28 02:57:55;;;;;;;136.10;39.08;;;;;;;;;;6190561;28;20070;-73
2022/10/28 03:00:56;;;;;;;230.88;48.38;;;;;;;;;;6190390;28;20463;-73
2022/10/28 03:03:56;;;;;;;177.90;44.63;;;;;;;;;;6176017;28;20027;-75
2022/10/28 03:06:56;;;;;;;141.18;45.30;;;;;;;;;;6176316;28;20534;-75
2022/10/28 03:09:56;;;;;;;194.50;45.70;;;;;;;;;;6177410;28;20073;-75
2022/10/28 03:12:56;;;;;;;136.73;41.55;;;;;;;;;;6177019;28;20046;-75
2022/10/28 03:15:56;;;;;;;144.93;38.53;;;;;;;;;;6165088;28;20081;-76
2022/10/28 03:18:57;;;;;;;153.93;39.97;;;;;;;;;;6182906;28;20033;-76
2022/10/28 03:21:57;;;;;;;143.00;34.38;;;;;;;;;;6183175;28;20073;-74
2022/10/28 03:24:57;;;;;;;114.97;31.97;;;;;;;;;;6177036;28;20030;-74
2022/10/28 03:27:57;;;;;;;120.77;33.60;;;;;;;;;;6183382;28;20030;-74
2022/10/28 03:30:57;;;;;;;127.32;35.78;;;;;;;;;;6176632;28;20431;-74
2022/10/28 03:33:58;;;;;;;163.50;32.97;;;;;;;;;;6180711;28;20026;-73
2022/10/28 03:36:58;;;;;;;95.60;23.83;;;;;;;;;;6168075;28;20341;-73
2022/10/28 03:40:01;;;;;;;132.57;31.80;;;;;;;;;;6158238;28;20486;-74
2022/10/28 03:43:01;;;;;;;150.38;34.85;;;;;;;;;;6169575;28;20018;-75
2022/10/28 03:46:01;;;;;;;143.63;32.55;;;;;;;;;;6176731;28;20026;-76
2022/10/28 03:49:01;;;;;;;127.85;33.13;;;;;;;;;;6154051;28;20627;-75
2022/10/28 03:52:02;;;;;;;142.40;32.60;;;;;;;;;;6162677;28;20027;-75
2022/10/28 03:55:03;;;;;;;106.60;31.77;;;;;;;;;;6162197;28;20027;-76
2022/10/28 03:58:03;;;;;;;157.75;32.22;;;;;;;;;;6162735;28;20030;-75
2022/10/28 04:01:03;;;;;;;186.25;33.67;;;;;;;;;;6168590;28;20023;-75
2022/10/28 04:04:04;;;;;;;116.07;31.00;;;;;;;;;;6189138;28;20042;-75
2022/10/28 04:07:04;;;;;;;119.50;27.48;;;;;;;;;;6174056;28;20126;-76
2022/10/28 04:10:04;;;;;;;90.90;27.77;;;;;;;;;;6188411;28;20141;-75
2022/10/28 04:13:05;;;;;;;65.53;26.97;;;;;;;;;;6173428;28;20495;-75
2022/10/28 04:16:05;;;;;;;79.70;26.95;;;;;;;;;;6158755;28;20034;-73
2022/10/28 04:19:06;;;;;;;81.82;26.60;;;;;;;;;;6165765;28;20023;-73
2022/10/28 04:22:07;;;;;;;87.75;26.50;;;;;;;;;;6166779;28;20019;-73
2022/10/28 04:25:08;;;;;;;;;;;;;;;;;;6160359;28;20018;-73
2022/10/28 04:28:08;;;;;;;129.00;30.33;;;;;;;;;;6166363;28;19906;-74
2022/10/28 04:31:10;;;;;;;128.43;32.17;;;;;;;;;;6156182;28;20061;-73
2022/10/28 04:34:11;;;;;;;110.72;31.08;;;;;;;;;;6174906;28;20057;-74
2022/10/28 04:37:11;;;;;;;126.65;31.48;;;;;;;;;;6173672;28;20031;-74
2022/10/28 04:40:11;;;;;;;101.70;29.07;;;;;;;;;;6163634;28;20047;-74
2022/10/28 04:43:11;;;;;;;109.97;29.97;;;;;;;;;;6162314;28;20046;-73
2022/10/28 04:46:12;;;;;;;159.48;34.78;;;;;;;;;;6171582;28;20104;-73
2022/10/28 04:49:12;;;;;;;128.32;31.48;;;;;;;;;;6165041;28;20102;-74
2022/10/28 04:52:12;;;;;;;155.02;32.17;;;;;;;;;;6156558;28;20086;-74
2022/10/28 04:55:12;;;;;;;118.00;31.73;;;;;;;;;;6168622;28;20301;-76
2022/10/28 04:58:12;;;;;;;110.63;30.67;;;;;;;;;;6170121;28;20262;-76
2022/10/28 05:01:13;;;;;;;137.30;33.53;;;;;;;;;;6168294;28;20493;-75
2022/10/28 05:04:13;;;;;;;104.53;29.40;;;;;;;;;;6162886;28;20028;-75
2022/10/28 05:07:13;;;;;;;65.00;27.70;;;;;;;;;;6167065;28;20047;-75
2022/10/28 05:10:14;;;;;;;154.48;33.00;;;;;;;;;;6164058;28;20385;-75
2022/10/28 05:13:14;;;;;;;151.90;36.10;;;;;;;;;;6165491;28;20498;-76
2022/10/28 05:16:14;;;;;;;95.55;24.00;;;;;;;;;;6170487;28;20023;-76
2022/10/28 05:19:15;;;;;;;128.50;32.30;;;;;;;;;;6172025;28;20376;-76
2022/10/28 05:22:15;;;;;;;103.57;29.40;;;;;;;;;;6173854;28;20304;-75
2022/10/28 05:25:16;;;;;;;118.65;30.88;;;;;;;;;;6170292;28;20773;-75
2022/10/28 05:28:16;;;;;;;96.10;30.88;;;;;;;;;;6165387;28;20275;-75
2022/10/28 05:31:17;;;;;;;102.90;29.83;;;;;;;;;;6160812;28;20041;-74
2022/10/28 05:34:17;;;;;;;120.35;31.63;;;;;;;;;;6160675;28;20027;-73
2022/10/28 05:37:17;;;;;;;123.80;32.55;;;;;;;;;;6170453;28;20033;-73
2022/10/28 05:40:17;;;;;;;102.55;28.73;;;;;;;;;;6172662;28;20031;-73
2022/10/28 05:43:17;;;;;;;75.97;25.77;;;;;;;;;;6170297;28;20034;-74
2022/10/28 05:46:18;;;;;;;90.63;23.75;;;;;;;;;;6157218;28;20027;-75
2022/10/28 05:49:19;;;;;;;69.30;22.62;;;;;;;;;;6153402;28;20395;-75
2022/10/28 05:52:19;;;;;;;70.40;24.97;;;;;;;;;;6173947;28;20479;-75
2022/10/28 05:55:20;;;;;;;64.27;23.70;;;;;;;;;;6155945;28;20033;-75
2022/10/28 05:58:20;;;;;;;63.80;23.37;;;;;;;;;;6148425;28;20248;-75
2022/10/28 06:01:20;;;;;;;53.65;22.45;;;;;;;;;;6158057;28;20387;-75
2022/10/28 06:04:21;;;;;;;78.18;25.30;;;;;;;;;;6164982;28;20085;-75
2022/10/28 06:07:21;;;;;;;65.72;24.33;;;;;;;;;;6166697;28;20078;-75
2022/10/28 06:10:21;;;;;;;48.35;23.30;;;;;;;;;;6164603;28;20019;-75
2022/10/28 06:13:22;;;;;;;54.43;21.57;;;;;;;;;;6158164;28;20015;-75
2022/10/28 06:16:22;;;;;;;70.72;24.80;;;;;;;;;;6157982;28;20273;-75
2022/10/28 06:19:22;;;;;;;64.28;23.15;;;;;;;;;;6167905;28;20056;-76
2022/10/28 06:22:22;;;;;;;46.28;23.10;;;;;;;;;;6170150;28;20340;-76
2022/10/28 06:25:23;;;;;;;58.27;23.17;;;;;;;;;;6160849;28;20030;-76
2022/10/28 06:28:23;;;;;;;49.03;21.50;;;;;;;;;;6169596;28;20050;-76
2022/10/28 06:31:23;;;;;;;43.40;20.10;;;;;;;;;;6158194;28;20467;-76
2022/10/28 06:34:24;;;;;;;39.03;20.95;;;;;;;;;;6166729;28;20022;-75
2022/10/28 06:37:24;;;;;;;35.90;18.38;;;;;;;;;;6174060;28;20023;-76
2022/10/28 06:40:25;;;;;;;30.60;19.13;;;;;;;;;;6171023;28;20036;-76
2022/10/28 06:43:25;;;;;;;30.98;19.90;;;;;;;;;;6150003;28;20270;-76
2022/10/28 06:46:25;;;;;;;32.28;18.80;;;;;;;;;;6174523;28;20015;-74
2022/10/28 06:49:26;;;;;;;27.00;15.97;;;;;;;;;;6166083;28;20022;-74
2022/10/28 06:52:26;;;;;;;27.42;16.13;;;;;;;;;;6178905;28;20007;-74
2022/10/28 06:55:27;;;;;;;25.38;17.00;;;;;;;;;;6174420;28;20034;-74
2022/10/28 06:58:27;;;;;;;20.50;14.37;;;;;;;;;;6173471;28;20022;-74
2022/10/28 07:01:27;;;;;;;23.08;15.75;;;;;;;;;;6180315;28;20034;-74
2022/10/28 07:04:27;;;;;;;20.73;15.63;;;;;;;;;;6177313;28;20434;-74
2022/10/28 07:07:27;;;;;;;20.00;13.97;;;;;;;;;;6174693;28;20405;-74
2022/10/28 07:10:28;;;;;;;23.07;17.00;;;;;;;;;;6175914;28;20030;-74
2022/10/28 07:13:28;;;;;;;25.23;17.73;;;;;;;;;;6178167;28;20072;-74
2022/10/28 07:16:28;;;;;;;40.23;28.20;;;;;;;;;;6179804;28;20041;-74
2022/10/28 07:19:28;;;;;;;40.83;26.00;;;;;;;;;;6194589;28;20076;-74
2022/10/28 07:22:28;;;;;;;24.83;17.33;;;;;;;;;;6181410;28;20467;-74
2022/10/28 07:25:29;;;;;;;25.67;18.63;;;;;;;;;;6155373;28;20027;-74
2022/10/28 07:28:29;;;;;;;22.97;17.90;;;;;;;;;;6171976;28;20027;-74
2022/10/28 07:31:30;;;;;;;27.30;20.27;;;;;;;;;;6166038;28;20029;-75
2022/10/28 07:34:30;;;;;;;22.47;17.13;;;;;;;;;;6168318;28;20345;-74
2022/10/28 07:37:30;;;;;;;27.67;18.60;;;;;;;;;;6164624;28;20037;-74
2022/10/28 07:40:30;;;;;;;25.40;17.47;;;;;;;;;;6178408;28;20036;-73
2022/10/28 07:43:33;;;;;;;27.17;17.90;;;;;;;;;;6160092;28;20395;-73
2022/10/28 07:46:33;;;;;;;28.40;20.10;;;;;;;;;;6169502;28;20011;-73
2022/10/28 07:49:34;;;;;;;33.33;19.90;;;;;;;;;;6163409;28;20114;-73
2022/10/28 07:52:34;;;;;;;27.67;20.23;;;;;;;;;;6166854;28;20494;-73
2022/10/28 07:55:34;;;;;;;25.17;17.97;;;;;;;;;;6172157;28;20023;-73
2022/10/28 07:58:35;;;;;;;24.70;17.57;;;;;;;;;;6172399;28;20023;-74
2022/10/28 08:01:35;;;;;;;28.75;19.15;;;;;;;;;;6175548;28;20074;-74
2022/10/28 08:04:36;;;;;;;24.37;16.67;;;;;;;;;;6173895;28;20093;-74
2022/10/28 08:07:36;;;;;;;21.40;17.63;;;;;;;;;;6157735;28;20042;-74
2022/10/28 08:10:36;;;;;;;24.87;17.83;;;;;;;;;;6166692;28;20030;-73
2022/10/28 08:13:36;;;;;;;25.05;17.80;;;;;;;;;;6167035;28;20077;-74
2022/10/28 08:16:36;;;;;;;23.37;17.37;;;;;;;;;;6158804;28;20030;-73
2022/10/28 08:19:37;;;;;;;25.83;18.10;;;;;;;;;;6155683;28;20027;-73
2022/10/28 08:22:37;;;;;;;22.95;16.83;;;;;;;;;;6167644;28;20118;-74
2022/10/28 08:25:37;;;;;;;29.73;17.17;;;;;;;;;;6166314;28;20035;-74
2022/10/28 08:28:37;;;;;;;23.75;17.13;;;;;;;;;;6169248;28;20101;-73
2022/10/28 08:31:38;;;;;;;23.48;17.00;;;;;;;;;;6154883;28;20026;-73
2022/10/28 08:34:38;;;;;;;21.03;17.43;;;;;;;;;;6172210;28;20035;-73
2022/10/28 08:37:38;;;;;;;20.70;16.30;;;;;;;;;;6173729;28;20097;-73
2022/10/28 08:40:47;;;;;;;24.83;16.70;;;;;;;;;;6161763;28;20436;-73
2022/10/28 08:43:53;;;;;;;26.08;17.77;;;;;;;;;;6171468;28;20102;-73
2022/10/28 08:47:12;;;;;;;25.25;16.90;;;;;;;;;;6173498;28;20033;-73
2022/10/28 08:50:17;;;;;;;24.20;16.85;;;;;;;;;;6168305;28;20026;-73
2022/10/28 08:53:40;;;;;;;22.08;14.32;;;;;;;;;;6169876;28;20018;-74
2022/10/28 08:56:44;;;;;;;23.33;15.93;;;;;;;;;;6170664;28;20376;-73
2022/10/28 08:59:46;;;;;;;38.55;15.15;;;;;;;;;;6167151;28;20054;-73
2022/10/28 09:02:50;;;;;;;25.52;14.52;;;;;;;;;;6171358;28;20021;-73
2022/10/28 09:06:07;;;;;;;16.40;12.82;;;;;;;;;;6170133;28;20121;-73
2022/10/28 09:09:11;;;;;;;20.65;14.20;;;;;;;;;;6159748;28;20023;-73
2022/10/28 09:12:15;;;;;;;17.80;12.63;;;;;;;;;;6172486;28;20117;-74
2022/10/28 09:15:37;;;;;;;19.17;12.35;;;;;;;;;;6165292;28;20018;-74
2022/10/28 09:18:46;;;;;;;19.80;13.93;;;;;;;;;;6163256;28;20081;-74
2022/10/28 09:21:49;;;;;;;22.23;14.10;;;;;;;;;;6168387;28;20035;-74
2022/10/28 09:24:52;;;;;;;21.58;13.07;;;;;;;;;;6165043;28;20042;-74
2022/10/28 09:28:05;;;;;;;19.95;12.75;;;;;;;;;;6161490;28;20023;-74
2022/10/28 09:31:11;;;;;;;19.15;12.18;;;;;;;;;;6162941;28;20026;-74
2022/10/28 09:34:28;;;;;;;19.95;12.23;;;;;;;;;;6168699;28;20027;-73
2022/10/28 09:37:33;;;;;;;19.95;12.73;;;;;;;;;;6171107;28;20381;-73
2022/10/28 09:40:35;;;;;;;23.35;11.40;;;;;;;;;;6167048;28;20022;-73
2022/10/28 09:43:39;;;;;;;19.55;12.40;;;;;;;;;;6161487;28;20246;-74
2022/10/28 09:46:39;;;;;;;39.38;20.92;;;;;;;;;;6170471;28;20018;-74
2022/10/28 09:49:40;;;;;;;22.77;13.33;;;;;;;;;;6155067;28;20037;-74
2022/10/28 09:52:52;;;;;;;36.83;17.13;;;;;;;;;;6167111;28;20383;-74
2022/10/28 09:55:52;;;;;;;13.07;7.60;;;;;;;;;;6167626;28;20035;-74
2022/10/28 09:58:54;;;;;;;41.07;18.60;;;;;;;;;;6172400;28;20423;-74
2022/10/28 10:01:54;;;;;;;;;;;;;;;;;;6164661;28;20015;-74
2022/10/28 10:04:56;;;;;;;22.13;10.65;;;;;;;;;;6163595;28;19906;-74
2022/10/28 10:08:03;;;;;;;14.55;9.00;;;;;;;;;;6165810;28;20018;-74
2022/10/28 10:11:29;;;;;;;25.08;9.90;;;;;;;;;;6157990;28;20414;-74
2022/10/28 10:14:34;;;;;;;23.75;10.63;;;;;;;;;;6126396;28;20085;-74
2022/10/28 10:17:38;;;;;;;31.55;16.15;;;;;;;;;;6154428;28;20506;-74
2022/10/28 10:20:45;;;;;;;67.78;32.78;;;;;;;;;;6173349;28;20038;-74
2022/10/28 10:23:46;;;;;;;65.15;33.50;;;;;;;;;;6154526;28;20014;-73
2022/10/28 10:26:46;;;;;;;36.38;18.02;;;;;;;;;;6162120;28;20054;-74
2022/10/28 10:29:47;;;;;;;18.17;9.20;;;;;;;;;;6160841;28;20057;-74
2022/10/28 10:32:47;;;;;;;40.40;17.75;;;;;;;;;;6162372;28;20050;-73
2022/10/28 10:36:01;;;;;;;31.73;14.40;;;;;;;;;;6161903;28;20030;-73
2022/10/28 10:39:01;;;;;;;32.45;16.60;;;;;;;;;;6157734;28;20030;-73
2022/10/28 10:42:02;;;;;;;21.63;12.03;;;;;;;;;;6169581;28;20049;-73
2022/10/28 10:45:15;;;;;;;19.15;9.82;;;;;;;;;;6140141;28;20019;-73
2022/10/28 10:48:17;;;;;;;16.90;8.80;;;;;;;;;;6163558;28;20058;-73
2022/10/28 10:51:22;;;;;;;17.52;8.05;;;;;;;;;;6157195;28;20021;-73
2022/10/28 10:54:23;;;;;;;13.38;8.18;;;;;;;;;;6168269;28;20027;-74
2022/10/28 10:57:24;;;;;;;11.20;6.03;;;;;;;;;;6159940;28;20154;-73
2022/10/28 11:00:28;;;;;;;12.98;6.15;;;;;;;;;;6167194;28;20015;-74
2022/10/28 11:03:31;;;;;;;11.15;6.65;;;;;;;;;;6169347;28;20011;-74
2022/10/28 11:06:35;;;;;;;13.82;5.82;;;;;;;;;;6161241;28;20047;-74
2022/10/28 11:09:38;;;;;;;11.98;6.40;;;;;;;;;;6162340;28;20023;-74
2022/10/28 11:12:49;;;;;;;12.30;6.53;;;;;;;;;;6168997;28;20161;-74
2022/10/28 11:15:58;;;;;;;7.25;4.88;;;;;;;;;;6170272;28;20130;-74
2022/10/28 11:19:11;;;;;;;11.77;5.60;;;;;;;;;;6157016;28;20468;-73
2022/10/28 11:22:27;;;;;;;10.93;6.45;;;;;;;;;;6168265;28;20113;-74
2022/10/28 11:25:38;;;;;;;11.93;5.85;;;;;;;;;;6169374;28;20561;-74
2022/10/28 11:28:57;;;;;;;11.18;6.00;;;;;;;;;;6168665;28;20022;-74
2022/10/28 11:32:19;;;;;;;12.55;6.53;;;;;;;;;;6165622;28;20025;-74
2022/10/28 11:35:25;;;;;;;14.93;6.60;;;;;;;;;;6166925;28;20041;-73
2022/10/28 11:38:32;;;;;;;11.25;5.05;;;;;;;;;;6176125;28;20546;-73
2022/10/28 11:41:32;;;;;;;14.77;6.22;;;;;;;;;;6170521;28;20106;-73
2022/10/28 11:45:02;;;;;;;12.80;5.95;;;;;;;;;;6164506;28;20033;-74
2022/10/28 11:48:21;;;;;;;9.85;5.50;;;;;;;;;;6165185;28;20108;-74
2022/10/28 11:51:39;;;;;;;11.38;5.85;;;;;;;;;;6175041;28;20110;-74
2022/10/28 11:55:06;;;;;;;16.42;6.93;;;;;;;;;;6171696;28;20069;-74
2022/10/28 11:58:06;;;;;;;10.57;5.53;;;;;;;;;;6149073;28;20030;-74
2022/10/28 12:01:06;;;;;;;9.93;5.10;;;;;;;;;;6172014;28;20029;-74
2022/10/28 12:04:24;;;;;;;14.45;5.60;;;;;;;;;;6168257;28;20027;-74
2022/10/28 12:07:29;;;;;;;12.27;4.55;;;;;;;;;;6170235;28;20039;-74
2022/10/28 12:10:38;;;;;;;7.20;4.05;;;;;;;;;;6168429;28;20263;-74
2022/10/28 12:13:38;;;;;;;7.68;4.15;;;;;;;;;;6173557;28;20486;-74
2022/10/28 12:16:51;;;;;;;8.60;3.93;;;;;;;;;;6173950;28;20027;-74
2022/10/28 12:20:10;;;;;;;15.23;5.63;;;;;;;;;;6168336;28;20266;-74
2022/10/28 12:23:12;;;;;;;20.33;7.22;;;;;;;;;;6172114;28;20027;-74
2022/10/28 12:26:14;;;;;;;10.95;4.22;;;;;;;;;;6171526;28;20066;-74
2022/10/28 12:29:20;;;;;;;8.48;4.88;;;;;;;;;;6155042;28;20027;-74
2022/10/28 12:32:27;;;;;;;9.40;4.63;;;;;;;;;;6172571;28;20031;-74
2022/10/28 12:35:29;;;;;;;10.60;4.07;;;;;;;;;;6172774;28;20035;-74
2022/10/28 12:38:38;;;;;;;12.30;4.45;;;;;;;;;;6174051;28;20205;-74
2022/10/28 12:41:57;;;;;;;14.27;5.05;;;;;;;;;;6156965;28;20166;-75
2022/10/28 12:44:59;;;;;;;7.22;4.50;;;;;;;;;;6156249;28;20023;-73
2022/10/28 12:47:59;;;;;;;14.27;4.35;;;;;;;;;;6171297;28;20022;-74
2022/10/28 12:51:04;;;;;;;8.67;4.17;;;;;;;;;;6174092;28;20023;-74
2022/10/28 12:54:14;;;;;;;9.98;4.78;;;;;;;;;;6171089;28;20078;-74
2022/10/28 12:57:16;;;;;;;11.60;4.85;;;;;;;;;;6166135;28;20095;-74
2022/10/28 13:00:31;;;;;;;14.25;5.68;;;;;;;;;;6163450;28;20019;-74
2022/10/28 13:03:31;;;;;;;14.40;6.78;;;;;;;;;;6165666;28;20202;-74
2022/10/28 13:06:50;;;;;;;12.90;6.60;;;;;;;;;;6169054;28;20050;-74
2022/10/28 13:09:53;;;;;;;13.80;6.85;;;;;;;;;;6159512;28;20026;-74
2022/10/28 13:12:58;;;;;;;14.25;6.15;;;;;;;;;;6161443;28;20472;-74
2022/10/28 13:16:08;;;;;;;9.88;6.25;;;;;;;;;;6166656;28;20483;-74
2022/10/28 13:19:35;;;;;;;13.30;5.95;;;;;;;;;;6157593;28;20126;-74
2022/10/28 13:22:48;;;;;;;9.57;3.95;;;;;;;;;;6149228;28;20156;-74
2022/10/28 13:26:26;;;;;;;10.77;5.78;;;;;;;;;;6172084;28;20015;-73
2022/10/28 13:29:29;;;;;;;9.65;4.35;;;;;;;;;;6121330;29;20024;-74
2022/10/28 13:32:37;;;;;;;9.38;4.20;;;;;;;;;;6120126;29;20043;-74
2022/10/28 13:35:37;;;;;;;6.85;3.65;;;;;;;;;;6166058;28;20057;-74
2022/10/28 13:38:37;;;;;;;10.00;4.60;;;;;;;;;;6152259;28;20026;-73
2022/10/28 13:41:39;;;;;;;13.53;4.93;;;;;;;;;;6162571;28;20026;-74
2022/10/28 13:44:52;;;;;;;10.75;4.47;;;;;;;;;;6180051;28;20094;-74
2022/10/28 13:48:12;;;;;;;8.02;3.58;;;;;;;;;;6173195;28;20149;-73
2022/10/28 13:51:12;;;;;;;15.38;4.53;;;;;;;;;;6173316;28;20030;-74
2022/10/28 13:54:26;;;;;;;9.98;4.47;;;;;;;;;;6152386;28;20046;-73
2022/10/28 13:57:31;;;;;;;8.43;4.15;;;;;;;;;;6166156;28;20026;-73
2022/10/28 14:00:33;;;;;;;12.10;6.30;;;;;;;;;;6169499;28;20512;-73
2022/10/28 14:03:33;;;;;;;;;;;;;;;;;;6171525;28;20015;-73
2022/10/28 14:06:33;;;;;;;13.88;6.35;;;;;;;;;;6149223;28;19984;-73
2022/10/28 14:09:34;;;;;;;16.45;4.70;;;;;;;;;;6163505;28;20041;-73
2022/10/28 14:12:39;;;;;;;12.97;5.00;;;;;;;;;;6166018;28;20031;-73
2022/10/28 14:15:39;;;;;;;12.13;5.05;;;;;;;;;;6160398;28;20263;-74
2022/10/28 14:18:40;;;;;;;14.93;5.93;;;;;;;;;;6166728;28;20038;-74
2022/10/28 14:21:47;;;;;;;17.35;6.68;;;;;;;;;;6165670;28;20019;-74
2022/10/28 14:24:47;;;;;;;16.02;6.93;;;;;;;;;;6158041;28;20022;-74
2022/10/28 14:27:47;;;;;;;13.75;6.13;;;;;;;;;;6163869;28;20494;-74
2022/10/28 14:31:06;;;;;;;13.63;6.35;;;;;;;;;;6171485;28;20072;-74
2022/10/28 14:34:06;;;;;;;12.95;6.05;;;;;;;;;;6153185;28;20063;-74
2022/10/28 14:37:20;;;;;;;11.45;5.50;;;;;;;;;;6169044;28;20027;-73
2022/10/28 14:40:31;;;;;;;11.77;5.80;;;;;;;;;;6157563;28;20033;-73
2022/10/28 14:43:40;;;;;;;11.77;6.07;;;;;;;;;;6170239;28;20054;-74
2022/10/28 14:47:00;;;;;;;12.27;5.60;;;;;;;;;;6169378;28;20022;-74
2022/10/28 14:50:03;;;;;;;11.70;6.45;;;;;;;;;;6133182;28;20035;-73
2022/10/28 14:53:11;;;;;;;15.68;6.53;;;;;;;;;;6163398;28;20513;-73
2022/10/28 14:56:17;;;;;;;11.73;5.85;;;;;;;;;;6165895;28;20030;-73
2022/10/28 14:59:23;;;;;;;19.10;8.63;;;;;;;;;;6164962;28;20031;-74
2022/10/28 15:02:25;;;;;;;16.38;9.05;;;;;;;;;;6172433;28;20129;-74
2022/10/28 15:05:29;;;;;;;35.42;19.90;;;;;;;;;;6173071;28;20514;-74
2022/10/28 15:08:29;;;;;;;41.92;24.40;;;;;;;;;;6174813;28;20015;-74
2022/10/28 15:11:29;;;;;;;29.73;14.13;;;;;;;;;;6174679;28;20041;-74
2022/10/28 15:14:31;;;;;;;;;;;;;;;;;;6171679;28;20518;-74
2022/10/28 15:17:38;;;;;;;28.90;15.67;;;;;;;;;;6158427;28;19964;-73
2022/10/28 15:20:38;;;;;;;29.52;13.18;;;;;;;;;;6167413;28;20293;-73
2022/10/28 15:23:38;;;;;;;28.13;13.77;;;;;;;;;;6158256;28;20380;-74
2022/10/28 15:26:38;;;;;;;30.33;14.20;;;;;;;;;;6161208;28;20106;-73
2022/10/28 15:29:40;;;;;;;41.85;22.13;;;;;;;;;;6156462;28;20015;-74
2022/10/28 15:32:41;;;;;;;38.75;18.33;;;;;;;;;;6157870;28;20162;-74
2022/10/28 15:35:41;;;;;;;59.97;31.80;;;;;;;;;;6152818;28;20035;-73
2022/10/28 15:38:42;;;;;;;47.20;24.50;;;;;;;;;;6168057;28;20398;-73
2022/10/28 15:41:51;;;;;;;44.97;24.67;;;;;;;;;;6168808;28;20031;-74
2022/10/28 15:44:53;;;;;;;45.20;22.98;;;;;;;;;;6168582;28;20277;-73
2022/10/28 15:47:54;;;;;;;48.78;29.17;;;;;;;;;;6174210;28;20022;-74
2022/10/28 15:51:11;;;;;;;44.27;24.83;;;;;;;;;;6162493;28;20423;-73
2022/10/28 15:54:17;;;;;;;34.58;19.95;;;;;;;;;;6158691;28;20508;-73
2022/10/28 15:57:20;;;;;;;126.53;64.28;;;;;;;;;;6171693;28;20037;-73
2022/10/28 16:00:22;;;;;;;67.63;37.33;;;;;;;;;;6172105;28;20532;-73
2022/10/28 16:03:45;;;;;;;92.05;51.28;;;;;;;;;;6171666;28;20117;-74
2022/10/28 16:06:46;;;;;;;140.38;76.82;;;;;;;;;;6161870;28;20093;-74
2022/10/28 16:09:47;;;;;;;145.23;82.20;;;;;;;;;;6170807;28;20510;-73
2022/10/28 16:12:47;;;;;;;140.25;76.93;;;;;;;;;;6175272;28;20025;-74
2022/10/28 16:15:58;;;;;;;114.60;66.13;;;;;;;;;;6169872;28;20015;-73
2022/10/28 16:19:06;;;;;;;78.55;40.45;;;;;;;;;;6162210;28;20026;-73
2022/10/28 16:22:10;;;;;;;64.35;36.80;;;;;;;;;;6145698;28;20019;-74
2022/10/28 16:25:11;;;;;;;77.95;49.17;;;;;;;;;;6150614;28;20174;-74
2022/10/28 16:28:37;;;;;;;64.18;35.63;;;;;;;;;;6174393;28;20066;-74
2022/10/28 16:31:39;;;;;;;50.50;31.02;;;;;;;;;;6150388;28;20046;-74
2022/10/28 16:34:40;;;;;;;52.92;32.85;;;;;;;;;;6161613;28;20050;-74
2022/10/28 16:37:40;;;;;;;45.50;27.97;;;;;;;;;;6173198;28;20023;-74
2022/10/28 16:40:41;;;;;;;47.53;24.03;;;;;;;;;;6173842;28;20019;-74
2022/10/28 16:43:41;;;;;;;67.97;33.20;;;;;;;;;;6173667;28;20022;-73
2022/10/28 16:46:41;;;;;;;72.43;38.67;;;;;;;;;;6172884;28;20157;-74
2022/10/28 16:49:42;;;;;;;41.25;23.15;;;;;;;;;;6167514;28;20023;-74
2022/10/28 16:52:42;;;;;;;45.17;27.70;;;;;;;;;;6167864;28;20415;-74
2022/10/28 16:55:42;;;;;;;51.17;27.47;;;;;;;;;;6172063;28;20380;-74
2022/10/28 16:58:42;;;;;;;44.40;27.23;;;;;;;;;;6173268;28;20105;-73
2022/10/28 17:01:42;;;;;;;64.60;39.53;;;;;;;;;;6166370;28;20029;-73
2022/10/28 17:04:43;;;;;;;50.90;28.83;;;;;;;;;;6172383;28;20018;-73
2022/10/28 17:07:43;;;;;;;40.77;22.80;;;;;;;;;;6155244;28;20050;-74
2022/10/28 17:10:43;;;;;;;36.60;23.00;;;;;;;;;;6169117;28;20054;-73
2022/10/28 17:13:43;;;;;;;34.23;23.07;;;;;;;;;;6161717;28;20035;-73
2022/10/28 17:16:44;;;;;;;34.83;21.57;;;;;;;;;;6167956;28;20628;-73
2022/10/28 17:19:45;;;;;;;35.00;20.92;;;;;;;;;;6162946;28;20372;-73
2022/10/28 17:22:45;;;;;;;52.00;30.90;;;;;;;;;;6164073;28;20023;-74
2022/10/28 17:25:54;;;;;;;62.67;37.10;;;;;;;;;;6169945;28;20426;-73
2022/10/28 17:28:54;;;;;;;49.35;32.45;;;;;;;;;;6169493;28;20479;-73
2022/10/28 17:31:54;;;;;;;82.40;42.65;;;;;;;;;;6168548;28;20025;-72
2022/10/28 17:34:54;;;;;;;85.07;46.63;;;;;;;;;;6162182;28;20026;-73
2022/10/28 17:37:55;;;;;;;67.13;36.15;;;;;;;;;;6170736;28;20014;-73
2022/10/28 17:40:56;;;;;;;54.27;31.67;;;;;;;;;;6166993;28;20023;-73
2022/10/28 17:43:56;;;;;;;51.70;29.67;;;;;;;;;;6164098;28;20305;-74
2022/10/28 17:46:56;;;;;;;50.13;27.33;;;;;;;;;;6161022;28;20022;-73
2022/10/28 17:49:58;;;;;;;44.25;25.27;;;;;;;;;;6150979;28;20054;-73